Time;durP1;ratioP1;P1;durP2;ratioP2;P2;SDS_P1;SDS_P2;PMS_P1;PMS_P2;Temp;Humidity;BMP_temperature;BMP_pressure;BME280_temperature;BME280_humidity;BME280_pressure;Samples;Min_cycle;Max_cycle;Signal;HPM_P1;HPM_P2
2021/12/24 00:01:15;;;;;;;39.80;20.00;;;1.00;99.90;;;;;;5055074;28;20052;-74
2021/12/24 00:03:42;;;;;;;30.57;20.47;;;1.10;99.90;;;;;;5055406;28;20103;-75
2021/12/24 00:06:10;;;;;;;42.60;22.60;;;1.10;99.90;;;;;;5054308;28;20049;-74
2021/12/24 00:08:39;;;;;;;49.60;24.23;;;1.10;99.90;;;;;;5054903;28;20072;-75
2021/12/24 00:11:06;;;;;;;36.67;20.87;;;1.10;99.90;;;;;;5054762;28;20045;-74
2021/12/24 00:13:35;;;;;;;39.93;20.73;;;1.10;99.90;;;;;;5055060;28;20044;-76
2021/12/24 00:16:07;;;;;;;46.70;24.50;;;1.20;99.90;;;;;;5054657;28;20098;-74
2021/12/24 00:18:41;;;;;;;31.50;21.05;;;1.10;99.90;;;;;;5054851;28;20076;-74
2021/12/24 00:35:11;;;;;;;44.53;20.37;;;1.20;99.90;;;;;;5054114;28;20059;-74
2021/12/24 00:37:39;;;;;;;40.33;22.52;;;1.20;99.90;;;;;;5054528;28;20081;-76
2021/12/24 00:40:14;;;;;;;48.57;21.67;;;1.20;99.90;;;;;;5054390;28;20479;-75
2021/12/24 00:42:44;;;;;;;36.43;20.77;;;1.30;99.90;;;;;;5054729;28;20041;-77
2021/12/24 00:45:13;;;;;;;40.50;22.70;;;1.20;99.90;;;;;;5053949;28;20501;-76
2021/12/24 00:47:41;;;;;;;40.80;21.73;;;1.30;99.90;;;;;;5054496;28;20103;-76
2021/12/24 00:50:13;;;;;;;42.73;22.80;;;1.30;99.90;;;;;;5054880;28;20115;-74
2021/12/24 00:52:48;;;;;;;38.05;20.95;;;1.30;99.90;;;;;;5054317;28;20049;-75
2021/12/24 00:55:16;;;;;;;53.93;22.87;;;1.30;99.90;;;;;;5053767;28;20049;-75
2021/12/24 00:57:44;;;;;;;40.93;22.27;;;1.30;99.90;;;;;;5053603;28;20045;-79
2021/12/24 01:00:14;;;;;;;48.03;24.93;;;1.40;99.90;;;;;;5054222;28;20486;-78
2021/12/24 01:02:42;;;;;;;44.53;21.43;;;1.40;99.90;;;;;;5054597;28;20049;-76
2021/12/24 01:05:09;;;;;;;46.73;20.20;;;1.40;99.90;;;;;;5053475;28;20497;-79
2021/12/24 01:07:36;;;;;;;43.00;19.40;;;1.40;99.90;;;;;;5054127;28;20486;-76
2021/12/24 01:10:04;;;;;;;34.27;19.33;;;1.40;99.90;;;;;;5054156;28;20045;-76
2021/12/24 01:12:32;;;;;;;45.40;23.97;;;1.40;99.90;;;;;;5054225;28;20103;-75
2021/12/24 01:14:58;;;;;;;37.60;21.90;;;1.40;99.90;;;;;;5053715;28;20094;-75
2021/12/24 01:17:34;;;;;;;53.37;25.30;;;1.40;99.90;;;;;;5053759;28;20111;-76
2021/12/24 01:20:08;;;;;;;38.00;21.07;;;1.50;99.90;;;;;;5053747;28;20049;-76
2021/12/24 01:23:24;;;;;;;45.43;22.23;;;1.50;99.90;;;;;;5053896;28;20044;-76
2021/12/24 01:25:50;;;;;;;44.93;22.50;;;1.50;99.90;;;;;;5052993;28;20051;-78
2021/12/24 01:39:25;;;;;;;38.73;21.70;;;1.50;99.90;;;;;;5053459;28;20055;-75
2021/12/24 01:44:37;;;;;;;44.53;22.50;;;1.60;99.90;;;;;;5052990;28;20048;-76
2021/12/24 01:47:07;;;;;;;55.07;22.37;;;1.60;99.90;;;;;;5053217;28;20071;-75
2021/12/24 01:49:34;;;;;;;39.17;23.03;;;1.60;99.90;;;;;;5053447;28;20045;-75
2021/12/24 01:52:03;;;;;;;57.20;23.40;;;1.60;99.90;;;;;;5053326;28;20166;-76
2021/12/24 01:54:30;;;;;;;40.67;20.23;;;1.70;99.90;;;;;;5052708;28;20049;-78
2021/12/24 01:56:57;;;;;;;41.60;19.47;;;1.60;99.90;;;;;;5053240;28;20049;-74
2021/12/24 01:59:24;;;;;;;43.37;20.93;;;1.70;99.90;;;;;;5052696;28;20409;-75
2021/12/24 02:01:51;;;;;;;35.70;21.23;;;1.70;99.90;;;;;;5053067;28;20106;-74
2021/12/24 02:04:18;;;;;;;42.60;18.83;;;1.70;99.90;;;;;;5052507;28;20049;-75
2021/12/24 02:06:46;;;;;;;40.93;20.30;;;1.70;99.90;;;;;;5052860;28;20477;-75
2021/12/24 02:09:14;;;;;;;40.13;19.73;;;1.70;99.90;;;;;;5052134;28;20455;-76
2021/12/24 02:11:42;;;;;;;46.63;20.63;;;1.70;99.90;;;;;;5052618;28;20045;-75
2021/12/24 02:14:11;;;;;;;57.57;24.50;;;1.80;99.90;;;;;;5052111;28;20112;-74
2021/12/24 02:16:51;;;;;;;48.83;20.03;;;1.80;99.90;;;;;;5052537;28;20045;-75
2021/12/24 02:30:37;;;;;;;35.87;18.17;;;1.80;99.90;;;;;;5052482;28;20064;-76
2021/12/24 02:33:05;;;;;;;50.73;17.97;;;1.90;99.90;;;;;;5052572;28;20048;-75
2021/12/24 02:35:33;;;;;;;33.97;18.00;;;1.90;99.90;;;;;;5052039;28;20044;-75
2021/12/24 02:38:03;;;;;;;38.67;19.73;;;1.90;99.90;;;;;;5052463;28;20040;-76
2021/12/24 02:40:31;;;;;;;40.83;20.37;;;1.90;99.90;;;;;;5052447;28;20106;-76
2021/12/24 02:42:59;;;;;;;35.30;17.87;;;1.90;99.90;;;;;;5052005;28;20551;-75
2021/12/24 02:45:28;;;;;;;37.67;20.97;;;1.90;99.90;;;;;;5051200;28;20052;-74
2021/12/24 02:48:11;;;;;;;44.60;21.87;;;1.90;99.90;;;;;;5052235;28;20103;-75
2021/12/24 02:56:10;;;;;;;35.53;18.83;;;2.00;99.90;;;;;;5051394;28;20102;-74
2021/12/24 02:58:40;;;;;;;35.50;19.33;;;1.90;99.90;;;;;;5050911;28;20051;-74
2021/12/24 03:01:06;;;;;;;37.23;20.30;;;1.90;99.90;;;;;;5051770;28;20059;-74
2021/12/24 03:03:33;;;;;;;38.47;19.57;;;2.00;99.90;;;;;;5051938;28;20421;-75
2021/12/24 03:06:00;;;;;;;28.90;17.27;;;2.00;99.90;;;;;;5051663;28;20049;-75
2021/12/24 03:08:28;;;;;;;34.83;17.80;;;1.90;99.90;;;;;;5051920;28;20110;-74
2021/12/24 03:10:57;;;;;;;35.17;17.73;;;1.90;99.90;;;;;;5052278;28;20404;-75
2021/12/24 03:13:25;;;;;;;35.77;18.33;;;2.00;99.90;;;;;;5051911;28;20527;-74
2021/12/24 03:15:53;;;;;;;36.03;19.37;;;2.00;99.90;;;;;;5051214;28;20045;-73
2021/12/24 03:18:25;;;;;;;31.23;17.87;;;2.00;99.90;;;;;;5051710;28;20071;-76
2021/12/24 03:20:58;;;;;;;45.00;19.77;;;2.00;99.90;;;;;;5051524;28;20084;-74
2021/12/24 03:23:35;;;;;;;33.50;15.13;;;2.00;99.90;;;;;;5052024;28;20075;-74
2021/12/24 03:26:03;;;;;;;37.03;19.07;;;2.00;99.90;;;;;;5050952;28;20053;-72
2021/12/24 03:28:30;;;;;;;24.70;14.70;;;2.00;99.90;;;;;;5051623;28;20126;-74
2021/12/24 03:30:57;;;;;;;37.60;18.83;;;2.00;99.90;;;;;;5051635;28;20064;-74
2021/12/24 03:33:24;;;;;;;35.00;17.80;;;2.10;99.90;;;;;;5051709;28;20049;-74
2021/12/24 03:35:50;;;;;;;36.67;18.60;;;2.10;99.90;;;;;;5051365;28;20045;-73
2021/12/24 03:38:17;;;;;;;26.70;14.57;;;2.10;99.90;;;;;;5051919;28;20057;-73
2021/12/24 03:40:44;;;;;;;33.70;17.17;;;2.10;99.90;;;;;;5051607;28;20049;-74
2021/12/24 03:43:12;;;;;;;29.87;15.70;;;2.10;99.90;;;;;;5051575;28;20049;-74
2021/12/24 03:45:45;;;;;;;29.83;13.07;;;2.10;99.90;;;;;;5050711;28;20045;-74
2021/12/24 03:48:18;;;;;;;24.60;14.40;;;2.10;99.90;;;;;;5051373;28;20052;-75
2021/12/24 03:50:53;;;;;;;27.07;15.00;;;2.10;99.90;;;;;;5051381;28;20106;-74
2021/12/24 03:56:04;;;;;;;32.47;13.00;;;2.10;99.90;;;;;;5050753;28;20500;-74
2021/12/24 03:58:32;;;;;;;34.67;17.67;;;2.10;99.90;;;;;;5051425;28;20464;-74
2021/12/24 04:00:59;;;;;;;36.30;16.00;;;2.20;99.90;;;;;;5050975;28;20497;-75
2021/12/24 04:03:25;;;;;;;31.17;15.40;;;2.30;99.90;;;;;;5051834;28;20045;-74
2021/12/24 04:05:52;;;;;;;33.90;15.47;;;2.30;99.90;;;;;;5050720;28;20057;-75
2021/12/24 04:08:19;;;;;;;31.23;16.30;;;2.30;99.90;;;;;;5051274;28;20122;-74
2021/12/24 04:10:45;;;;;;;38.63;16.63;;;2.20;99.90;;;;;;5051150;28;20076;-75
2021/12/24 04:13:15;;;;;;;28.53;14.77;;;2.30;99.90;;;;;;5051277;28;20103;-75
2021/12/24 04:15:43;;;;;;;30.03;15.47;;;2.30;99.90;;;;;;5050632;28;20071;-74
2021/12/24 04:18:16;;;;;;;33.90;17.47;;;2.30;99.90;;;;;;5051584;28;20049;-73
2021/12/24 04:26:11;;;;;;;31.40;13.77;;;2.30;99.90;;;;;;5050492;28;20060;-75
2021/12/24 04:28:37;;;;;;;30.07;16.60;;;2.30;99.90;;;;;;5051091;28;20049;-74
2021/12/24 04:31:06;;;;;;;32.13;15.40;;;2.40;99.90;;;;;;5051224;28;20045;-74
2021/12/24 04:33:36;;;;;;;31.87;15.17;;;2.30;99.90;;;;;;5052784;28;20045;-74
2021/12/24 04:36:19;;;;;;;31.63;13.50;;;2.40;99.90;;;;;;5054157;28;20444;-74
2021/12/24 04:39:05;;;;;;;31.13;15.03;;;2.40;99.90;;;;;;5054460;28;20051;-73
2021/12/24 04:52:54;;;;;;;35.53;14.77;;;2.50;99.90;;;;;;5054148;28;20516;-75
2021/12/24 05:03:38;;;;;;;26.57;14.40;;;2.60;99.90;;;;;;5054096;28;20476;-75
2021/12/24 05:06:13;;;;;;;32.60;15.50;;;2.70;99.90;;;;;;5053510;28;20052;-75
2021/12/24 05:08:47;;;;;;;34.23;15.93;;;2.70;99.90;;;;;;5054437;28;20049;-75
2021/12/24 05:11:14;;;;;;;24.97;13.03;;;2.70;99.90;;;;;;5053718;28;20052;-74
2021/12/24 05:13:41;;;;;;;27.37;12.60;;;2.70;99.90;;;;;;5054113;28;20045;-75
2021/12/24 05:16:19;;;;;;;28.33;14.30;;;2.70;99.90;;;;;;5053337;28;20493;-76
2021/12/24 05:19:14;;;;;;;41.37;13.67;;;2.70;99.90;;;;;;5053998;28;20135;-75
2021/12/24 05:21:42;;;;;;;29.73;12.50;;;2.80;99.90;;;;;;5053586;28;20179;-74
2021/12/24 05:24:13;;;;;;;21.60;12.27;;;2.90;99.90;;;;;;5053312;28;20132;-74
2021/12/24 05:26:41;;;;;;;25.07;11.73;;;2.80;99.90;;;;;;5053753;28;20053;-75
2021/12/24 05:29:08;;;;;;;29.57;13.57;;;2.90;99.90;;;;;;5053650;28;20798;-74
2021/12/24 05:31:35;;;;;;;32.40;13.47;;;2.80;99.90;;;;;;5053748;28;20049;-73
2021/12/24 05:34:03;;;;;;;27.23;12.53;;;2.80;99.90;;;;;;5053490;28;20041;-75
2021/12/24 05:36:30;;;;;;;26.97;11.90;;;2.90;99.90;;;;;;5053476;28;20048;-73
2021/12/24 05:38:56;;;;;;;25.53;12.47;;;2.90;99.90;;;;;;5053679;28;20094;-74
2021/12/24 05:41:24;;;;;;;28.60;11.10;;;2.90;99.90;;;;;;5053329;28;20055;-74
2021/12/24 05:43:52;;;;;;;31.17;13.53;;;3.00;99.90;;;;;;5052977;28;20132;-74
2021/12/24 05:46:19;;;;;;;29.83;14.93;;;3.00;99.90;;;;;;5052589;28;20045;-74
2021/12/24 05:48:46;;;;;;;29.97;11.80;;;3.10;99.90;;;;;;5053181;28;20498;-74
2021/12/24 05:51:14;;;;;;;21.07;12.80;;;3.10;99.90;;;;;;5053396;28;20064;-74
2021/12/24 05:53:40;;;;;;;25.80;12.67;;;3.10;99.90;;;;;;5053267;28;20041;-73
2021/12/24 05:56:07;;;;;;;24.10;12.37;;;3.10;99.90;;;;;;5052798;28;20282;-74
2021/12/24 05:58:34;;;;;;;23.60;9.63;;;3.10;99.90;;;;;;5052964;28;20429;-74
2021/12/24 06:01:01;;;;;;;17.93;8.93;;;3.20;99.90;;;;;;5052696;28;20045;-75
2021/12/24 06:03:27;;;;;;;22.37;10.93;;;3.20;99.90;;;;;;5053095;28;20045;-74
2021/12/24 06:05:54;;;;;;;24.13;13.97;;;3.30;99.90;;;;;;5052366;28;20067;-75
2021/12/24 06:08:22;;;;;;;19.87;11.80;;;3.30;99.90;;;;;;5052831;28;20049;-74
2021/12/24 06:10:49;;;;;;;26.37;9.00;;;3.30;99.90;;;;;;5052783;28;20535;-74
2021/12/24 06:13:16;;;;;;;19.00;9.67;;;3.40;99.90;;;;;;5052677;28;20053;-74
2021/12/24 06:15:45;;;;;;;23.43;10.17;;;3.40;99.90;;;;;;5052050;28;20048;-76
2021/12/24 06:18:20;;;;;;;16.00;7.90;;;3.40;99.90;;;;;;5052769;28;20080;-75
2021/12/24 06:20:46;;;;;;;16.63;8.77;;;3.50;99.90;;;;;;5052679;28;20049;-75
2021/12/24 06:23:13;;;;;;;19.97;8.20;;;3.50;99.90;;;;;;5052526;28;20052;-75
2021/12/24 06:25:41;;;;;;;19.83;9.20;;;3.50;99.90;;;;;;5052062;28;20075;-75
2021/12/24 06:28:08;;;;;;;16.17;8.30;;;3.50;99.90;;;;;;5052325;28;20095;-74
2021/12/24 06:30:35;;;;;;;14.80;7.50;;;3.60;99.90;;;;;;5052588;28;20045;-74
2021/12/24 06:33:02;;;;;;;14.13;8.07;;;3.60;99.90;;;;;;5052641;28;20044;-74
2021/12/24 06:35:28;;;;;;;15.10;6.60;;;3.60;99.90;;;;;;5051719;28;20555;-74
2021/12/24 06:37:56;;;;;;;14.80;7.67;;;3.60;99.90;;;;;;5052449;28;20045;-75
2021/12/24 06:40:23;;;;;;;19.50;8.57;;;3.60;99.90;;;;;;5052153;28;20079;-74
2021/12/24 06:42:51;;;;;;;17.70;7.80;;;3.60;99.90;;;;;;5052102;28;20090;-73
2021/12/24 06:45:22;;;;;;;15.87;7.17;;;3.60;99.90;;;;;;5051730;28;20052;-74
2021/12/24 06:47:49;;;;;;;20.38;8.13;;;3.60;99.90;;;;;;5052161;28;20420;-74
2021/12/24 06:50:16;;;;;;;13.40;8.13;;;3.70;99.90;;;;;;5052383;28;20045;-76
2021/12/24 06:52:42;;;;;;;15.20;7.37;;;3.70;99.90;;;;;;5052354;28;20386;-76
2021/12/24 06:55:10;;;;;;;11.60;7.57;;;3.70;99.90;;;;;;5052503;28;20485;-75
2021/12/24 06:57:37;;;;;;;12.63;6.87;;;3.80;99.90;;;;;;5053024;28;20045;-75
2021/12/24 07:00:07;;;;;;;16.63;8.33;;;3.80;99.90;;;;;;5052148;28;20056;-74
2021/12/24 07:02:34;;;;;;;13.70;6.70;;;3.80;99.90;;;;;;5052312;28;20044;-75
2021/12/24 07:05:00;;;;;;;12.80;6.80;;;3.90;99.90;;;;;;5051230;28;20095;-75
2021/12/24 07:07:27;;;;;;;12.90;6.93;;;3.90;99.90;;;;;;5051774;28;20102;-75
2021/12/24 07:09:54;;;;;;;10.90;6.27;;;4.00;99.90;;;;;;5051640;28;20093;-76
2021/12/24 07:12:20;;;;;;;8.80;5.73;;;3.90;99.90;;;;;;5051929;28;20045;-76
2021/12/24 07:14:49;;;;;;;11.30;7.20;;;3.90;99.90;;;;;;5051160;28;20049;-76
2021/12/24 07:17:17;;;;;;;11.77;6.37;;;3.90;99.90;;;;;;5051905;28;20052;-75
2021/12/24 07:19:44;;;;;;;11.17;5.63;;;4.00;99.90;;;;;;5051782;28;20049;-77
2021/12/24 07:22:12;;;;;;;12.83;6.67;;;4.00;99.90;;;;;;5051973;28;20481;-76
2021/12/24 07:24:39;;;;;;;11.40;6.10;;;4.00;99.90;;;;;;5051265;28;20187;-75
2021/12/24 07:27:06;;;;;;;11.77;6.67;;;4.00;99.90;;;;;;5051900;28;20143;-76
2021/12/24 07:29:33;;;;;;;7.40;4.07;;;4.10;99.90;;;;;;5052039;28;20056;-75
2021/12/24 07:31:59;;;;;;;7.10;4.87;;;4.10;99.90;;;;;;5051402;28;20102;-75
2021/12/24 07:34:27;;;;;;;8.73;5.97;;;4.20;99.90;;;;;;5050987;28;20071;-75
2021/12/24 07:36:54;;;;;;;8.13;4.77;;;4.20;99.90;;;;;;5051408;28;20111;-75
2021/12/24 07:39:21;;;;;;;8.57;5.27;;;4.20;99.90;;;;;;5051796;28;20068;-75
2021/12/24 07:41:48;;;;;;;6.60;4.73;;;4.30;99.90;;;;;;5051627;28;20106;-74
2021/12/24 07:44:16;;;;;;;11.50;7.03;;;4.30;99.90;;;;;;5051202;28;20079;-75
2021/12/24 07:46:47;;;;;;;9.17;4.47;;;4.30;99.90;;;;;;5051373;28;20600;-77
2021/12/24 07:49:29;;;;;;;8.87;5.03;;;4.30;99.90;;;;;;5051779;28;20045;-76
2021/12/24 07:52:08;;;;;;;5.10;4.37;;;4.30;99.90;;;;;;5051564;28;20055;-74
2021/12/24 07:54:38;;;;;;;5.73;4.23;;;4.40;99.90;;;;;;5051167;28;20049;-76
2021/12/24 07:57:06;;;;;;;6.03;4.53;;;4.40;99.90;;;;;;5051474;28;20449;-75
2021/12/24 07:59:35;;;;;;;6.50;4.97;;;4.50;99.90;;;;;;5051316;28;20523;-75
2021/12/24 08:02:02;;;;;;;6.27;4.23;;;4.50;99.90;;;;;;5051338;28;20056;-75
2021/12/24 08:04:31;;;;;;;7.60;5.00;;;4.60;99.90;;;;;;5050930;28;20171;-76
2021/12/24 08:07:01;;;;;;;6.90;4.83;;;4.50;99.90;;;;;;5052011;28;20521;-76
2021/12/24 08:09:27;;;;;;;6.70;4.07;;;4.60;99.90;;;;;;5055177;28;20053;-76
2021/12/24 08:11:54;;;;;;;7.77;4.20;;;4.60;99.90;;;;;;5055101;28;20045;-76
2021/12/24 08:14:21;;;;;;;3.80;2.90;;;4.70;99.90;;;;;;5054482;28;20045;-75
2021/12/24 08:16:48;;;;;;;5.03;4.33;;;4.70;99.90;;;;;;5054734;28;20489;-76
2021/12/24 08:19:16;;;;;;;6.30;3.80;;;4.60;99.90;;;;;;5055059;28;20103;-75
2021/12/24 08:21:45;;;;;;;7.03;3.70;;;4.60;99.90;;;;;;5055007;28;20076;-75
2021/12/24 08:24:13;;;;;;;5.93;3.13;;;4.60;99.90;;;;;;5054126;28;20140;-76
2021/12/24 08:26:40;;;;;;;4.73;2.70;;;4.70;99.90;;;;;;5054874;28;20048;-75
2021/12/24 08:29:06;;;;;;;4.77;3.40;;;4.70;99.90;;;;;;5054393;28;20049;-74
2021/12/24 08:31:34;;;;;;;4.13;3.00;;;4.70;99.90;;;;;;5054897;28;20049;-75
2021/12/24 08:34:01;;;;;;;4.73;3.07;;;4.80;99.90;;;;;;5054285;28;20488;-75
2021/12/24 08:36:27;;;;;;;6.17;3.43;;;4.80;99.90;;;;;;5054460;28;20417;-75
2021/12/24 08:38:55;;;;;;;2.73;2.50;;;4.80;99.90;;;;;;5054989;28;20099;-74
2021/12/24 08:41:23;;;;;;;11.90;7.90;;;4.80;99.90;;;;;;5054525;28;20091;-75
2021/12/24 08:43:49;;;;;;;9.90;6.33;;;4.80;99.90;;;;;;5054689;28;20044;-75
2021/12/24 08:46:18;;;;;;;9.70;5.30;;;4.90;99.90;;;;;;5054002;28;20076;-74
2021/12/24 08:48:45;;;;;;;7.50;5.00;;;4.80;99.90;;;;;;5054999;28;20075;-74
2021/12/24 08:51:11;;;;;;;3.30;2.80;;;4.90;99.90;;;;;;5054227;28;20045;-75
2021/12/24 08:53:40;;;;;;;3.87;2.57;;;5.00;99.90;;;;;;5054343;28;20398;-75
2021/12/24 08:56:07;;;;;;;4.07;2.47;;;5.00;99.90;;;;;;5053768;28;20049;-75
2021/12/24 08:58:37;;;;;;;2.37;2.17;;;5.00;99.90;;;;;;5054559;28;20045;-75
2021/12/24 09:01:05;;;;;;;3.70;2.13;;;5.10;99.90;;;;;;5054176;28;20103;-75
2021/12/24 09:03:31;;;;;;;2.40;2.10;;;5.10;99.90;;;;;;5054183;28;20115;-74
2021/12/24 09:05:58;;;;;;;3.07;2.17;;;5.10;99.90;;;;;;5053385;28;20056;-75
2021/12/24 09:08:25;;;;;;;3.20;2.20;;;5.10;99.90;;;;;;5053825;28;20045;-75
2021/12/24 09:10:52;;;;;;;4.60;3.13;;;5.10;99.90;;;;;;5053793;28;20041;-75
2021/12/24 09:13:18;;;;;;;4.83;2.50;;;5.10;99.90;;;;;;5053995;28;20099;-76
2021/12/24 09:15:47;;;;;;;3.30;3.00;;;5.10;99.90;;;;;;5053545;28;20098;-75
2021/12/24 09:18:13;;;;;;;2.27;2.03;;;5.10;99.90;;;;;;5053493;28;20045;-75
2021/12/24 09:20:43;;;;;;;3.60;2.30;;;5.20;99.90;;;;;;5053541;28;20048;-74
2021/12/24 09:23:11;;;;;;;3.10;2.07;;;5.20;99.90;;;;;;5053810;28;20076;-75
2021/12/24 09:25:38;;;;;;;2.77;2.33;;;5.20;99.90;;;;;;5053505;28;20099;-74
2021/12/24 09:28:06;;;;;;;3.30;2.97;;;5.20;99.90;;;;;;5054361;28;20045;-73
2021/12/24 09:30:34;;;;;;;13.20;9.33;;;5.30;99.90;;;;;;5055261;28;20059;-74
2021/12/24 09:33:03;;;;;;;13.40;7.90;;;5.30;99.90;;;;;;5054324;28;20048;-74
2021/12/24 09:35:30;;;;;;;5.47;3.83;;;5.30;99.90;;;;;;5053999;28;20096;-74
2021/12/24 09:37:58;;;;;;;2.47;1.90;;;5.30;99.90;;;;;;5054571;28;20091;-74
2021/12/24 09:40:26;;;;;;;2.97;2.40;;;5.30;99.90;;;;;;5054395;28;20040;-74
2021/12/24 09:42:54;;;;;;;2.57;2.07;;;5.30;99.90;;;;;;5054640;28;20048;-74
2021/12/24 09:45:20;;;;;;;2.53;2.07;;;5.30;99.90;;;;;;5053984;28;20099;-73
2021/12/24 09:47:47;;;;;;;2.40;2.20;;;5.30;99.90;;;;;;5054118;28;20088;-73
2021/12/24 09:50:20;;;;;;;2.97;1.80;;;5.20;99.90;;;;;;5053187;28;20110;-73
2021/12/24 09:52:49;;;;;;;2.63;2.40;;;5.20;99.90;;;;;;5053285;28;20052;-74
2021/12/24 09:55:18;;;;;;;2.67;2.47;;;5.20;99.90;;;;;;5052710;28;20045;-73
2021/12/24 09:57:45;;;;;;;2.50;1.93;;;5.20;99.90;;;;;;5058053;28;20045;-75
2021/12/24 10:00:17;;;;;;;3.57;3.00;;;5.10;99.90;;;;;;5055072;28;20045;-71
2021/12/24 10:02:46;;;;;;;2.67;2.15;;;5.10;99.90;;;;;;5052883;28;20049;-72
2021/12/24 10:05:27;;;;;;;2.07;1.50;;;5.10;99.90;;;;;;5052406;28;20041;-73
2021/12/24 10:08:00;;;;;;;1.83;1.73;;;5.10;99.90;;;;;;5053207;28;20060;-74
2021/12/24 10:10:29;;;;;;;2.33;2.13;;;5.10;99.90;;;;;;5053153;28;20049;-74
2021/12/24 10:12:58;;;;;;;2.23;1.80;;;5.10;99.90;;;;;;5053301;28;20049;-73
2021/12/24 10:15:25;;;;;;;5.63;1.97;;;5.10;99.90;;;;;;5051917;28;20476;-73
2021/12/24 10:17:51;;;;;;;2.40;2.13;;;5.10;99.90;;;;;;5052997;28;20049;-74
2021/12/24 10:20:20;;;;;;;7.33;5.03;;;5.10;99.90;;;;;;5052542;28;20103;-73
2021/12/24 10:22:51;;;;;;;6.97;4.90;;;5.20;99.90;;;;;;5053142;28;20072;-74
2021/12/24 10:25:27;;;;;;;4.45;3.08;;;5.20;99.90;;;;;;5052633;28;20049;-78
2021/12/24 10:27:54;;;;;;;5.23;2.13;;;5.30;99.90;;;;;;5052635;28;20045;-75
2021/12/24 10:30:26;;;;;;;4.30;1.77;;;5.30;99.90;;;;;;5051862;28;20049;-74
2021/12/24 10:32:55;;;;;;;2.13;2.00;;;5.30;99.90;;;;;;5053196;28;20053;-78
2021/12/24 10:35:24;;;;;;;3.90;2.60;;;5.20;99.90;;;;;;5052384;28;20041;-78
2021/12/24 10:38:14;;;;;;;2.53;2.33;;;5.30;99.90;;;;;;5052994;28;20095;-74
2021/12/24 10:40:50;;;;;;;2.03;1.80;;;5.30;99.90;;;;;;5052587;28;20060;-76
2021/12/24 10:43:25;;;;;;;2.27;1.87;;;5.20;99.90;;;;;;5052472;28;20052;-73
2021/12/24 10:46:09;;;;;;;1.53;1.43;;;5.30;99.90;;;;;;5051936;28;20080;-74
2021/12/24 10:48:35;;;;;;;1.87;1.70;;;5.30;99.90;;;;;;5051824;28;20136;-76
2021/12/24 10:51:06;;;;;;;2.00;1.90;;;5.40;99.90;;;;;;5052397;28;20096;-74
2021/12/24 10:54:03;;;;;;;1.83;1.67;;;5.40;99.90;;;;;;5052293;28;20140;-75
2021/12/24 10:56:30;;;;;;;2.37;2.17;;;5.40;99.90;;;;;;5052359;28;20049;-75
2021/12/24 10:58:57;;;;;;;2.20;2.00;;;5.40;99.90;;;;;;5051856;28;20060;-75
2021/12/24 11:01:23;;;;;;;1.90;1.70;;;5.40;99.90;;;;;;5051814;28;20505;-75
2021/12/24 11:03:50;;;;;;;2.40;2.20;;;5.30;99.90;;;;;;5051806;28;20045;-75
2021/12/24 11:06:17;;;;;;;8.37;5.53;;;5.30;99.90;;;;;;5051181;28;20563;-76
2021/12/24 11:08:45;;;;;;;4.50;3.07;;;5.30;99.90;;;;;;5051966;28;20052;-76
2021/12/24 11:11:17;;;;;;;4.33;2.17;;;5.30;99.90;;;;;;5052030;28;20106;-74
2021/12/24 11:13:47;;;;;;;1.83;1.63;;;5.30;99.90;;;;;;5051652;28;20060;-73
2021/12/24 11:16:18;;;;;;;2.13;1.50;;;5.30;99.90;;;;;;5055585;28;20045;-74
2021/12/24 11:18:47;;;;;;;0.88;0.88;;;5.30;99.90;;;;;;5061724;28;20057;-75
2021/12/24 11:21:20;;;;;;;1.03;0.93;;;5.20;99.90;;;;;;5051917;28;20044;-74
2021/12/24 11:23:49;;;;;;;1.00;0.87;;;5.20;99.90;;;;;;5052128;28;20049;-74
2021/12/24 11:26:18;;;;;;;1.77;0.93;;;5.10;99.90;;;;;;5051673;28;20045;-73
2021/12/24 11:28:45;;;;;;;0.90;0.60;;;5.00;99.90;;;;;;5051659;28;20079;-75
2021/12/24 11:31:14;;;;;;;1.03;1.00;;;5.00;99.90;;;;;;5051880;28;20053;-73
2021/12/24 11:33:43;;;;;;;1.27;1.00;;;4.90;99.90;;;;;;5051547;28;20114;-75
2021/12/24 11:36:12;;;;;;;1.30;1.20;;;4.90;99.90;;;;;;5051012;28;20049;-75
2021/12/24 11:38:40;;;;;;;2.57;2.10;;;4.90;99.90;;;;;;5051456;28;20098;-74
2021/12/24 11:41:11;;;;;;;1.60;1.50;;;5.00;99.90;;;;;;5051782;28;20044;-74
2021/12/24 11:43:41;;;;;;;3.67;1.55;;;5.00;99.90;;;;;;5055522;28;20049;-74
2021/12/24 11:46:09;;;;;;;1.20;0.97;;;4.90;99.90;;;;;;5055137;28;20041;-76
2021/12/24 11:48:37;;;;;;;0.80;0.80;;;5.00;99.90;;;;;;5055743;28;20045;-71
2021/12/24 11:51:07;;;;;;;0.80;0.80;;;5.00;99.90;;;;;;5055465;28;20053;-75
2021/12/24 11:53:34;;;;;;;1.27;1.17;;;4.90;99.90;;;;;;5055684;28;20122;-74
2021/12/24 11:56:06;;;;;;;0.87;0.70;;;4.90;99.90;;;;;;5059169;28;20067;-78
2021/12/24 11:58:42;;;;;;;1.07;1.07;;;4.80;99.90;;;;;;5056346;28;20053;-75
2021/12/24 12:01:09;;;;;;;0.70;0.70;;;4.90;99.90;;;;;;5055041;28;20041;-75
2021/12/24 12:03:37;;;;;;;0.63;0.63;;;5.00;99.90;;;;;;5055032;28;20071;-78
2021/12/24 12:06:06;;;;;;;1.73;0.80;;;5.00;99.90;;;;;;5055537;28;20067;-74
2021/12/24 12:08:41;;;;;;;1.10;0.97;;;4.90;99.90;;;;;;5055262;28;20075;-75
2021/12/24 12:11:20;;;;;;;1.77;1.40;;;4.90;99.90;;;;;;5054791;28;20550;-75
2021/12/24 12:13:52;;;;;;;2.23;0.73;;;4.80;99.90;;;;;;5055198;28;20048;-76
2021/12/24 12:16:20;;;;;;;;;;;4.70;99.90;;;;;;5054822;28;20497;-75
2021/12/24 12:19:00;;;;;;;0.63;0.60;;;4.60;99.90;;;;;;5055301;28;20135;-75
2021/12/24 12:21:36;;;;;;;1.00;0.47;;;4.50;99.90;;;;;;5055272;28;20146;-76
2021/12/24 12:26:58;;;;;;;1.10;0.90;;;4.50;99.90;;;;;;5054844;28;20494;-74
2021/12/24 12:29:32;;;;;;;5.30;2.97;;;4.50;99.90;;;;;;5055244;28;20045;-75
2021/12/24 12:32:24;;;;;;;3.40;1.57;;;4.50;99.90;;;;;;5054870;28;20076;-75
2021/12/24 12:34:56;;;;;;;2.88;1.67;;;4.30;99.90;;;;;;5054151;28;20041;-76
2021/12/24 12:37:25;;;;;;;2.40;1.60;;;4.10;99.90;;;;;;5054804;28;20459;-76
2021/12/24 12:39:53;;;;;;;4.27;1.83;;;3.90;99.90;;;;;;5054720;28;20049;-76
2021/12/24 12:42:21;;;;;;;3.57;1.87;;;3.80;99.90;;;;;;5054521;28;20079;-75
2021/12/24 12:44:52;;;;;;;1.80;1.70;;;3.70;99.90;;;;;;5053710;28;20128;-76
2021/12/24 12:47:22;;;;;;;2.40;1.42;;;3.60;99.90;;;;;;5054161;28;20447;-73
2021/12/24 12:50:11;;;;;;;0.57;0.50;;;3.60;99.90;;;;;;5054610;28;20144;-74
2021/12/24 12:52:40;;;;;;;0.90;0.87;;;3.40;99.90;;;;;;5056799;28;20386;-74
2021/12/24 12:55:27;;;;;;;0.80;0.80;;;3.40;99.90;;;;;;5053551;28;20095;-73
2021/12/24 12:57:53;;;;;;;1.30;1.20;;;3.40;99.90;;;;;;5054578;28;20071;-74
2021/12/24 13:00:27;;;;;;;1.23;1.23;;;3.30;99.90;;;;;;5055103;28;20056;-72
2021/12/24 13:03:11;;;;;;;1.00;0.93;;;3.30;99.90;;;;;;5055406;28;20103;-75
2021/12/24 13:05:54;;;;;;;2.20;2.03;;;3.30;99.90;;;;;;5053883;28;20045;-77
2021/12/24 13:08:23;;;;;;;1.80;1.37;;;3.20;99.90;;;;;;5055072;28;20330;-76
2021/12/24 13:10:59;;;;;;;1.67;1.50;;;3.30;99.90;;;;;;5054512;28;20094;-77
2021/12/24 13:13:26;;;;;;;1.50;1.40;;;3.10;99.90;;;;;;5054391;28;20520;-76
2021/12/24 13:15:55;;;;;;;2.13;1.60;;;3.10;99.90;;;;;;5054058;28;20053;-74
2021/12/24 13:18:27;;;;;;;1.80;1.70;;;3.00;99.90;;;;;;5054433;28;20488;-76
2021/12/24 13:23:42;;;;;;;2.30;2.10;;;2.90;99.90;;;;;;5053751;28;20071;-76
2021/12/24 13:26:11;;;;;;;3.33;2.60;;;2.80;99.90;;;;;;5053091;28;20386;-76
2021/12/24 13:28:58;;;;;;;2.17;2.03;;;2.80;99.90;;;;;;5053652;28;20498;-76
2021/12/24 13:31:28;;;;;;;3.67;2.20;;;2.80;99.90;;;;;;5053917;28;20045;-76
2021/12/24 13:33:55;;;;;;;3.53;2.33;;;2.70;99.90;;;;;;5053933;28;20099;-73
2021/12/24 13:36:23;;;;;;;2.83;2.57;;;2.70;99.90;;;;;;5053397;28;20112;-74
2021/12/24 13:38:50;;;;;;;4.00;2.90;;;2.70;99.90;;;;;;5053507;28;20048;-73
2021/12/24 13:41:17;;;;;;;5.23;3.50;;;2.70;99.90;;;;;;5054539;28;20041;-74
2021/12/24 13:43:44;;;;;;;5.87;3.90;;;2.70;99.90;;;;;;5053302;28;20075;-74
2021/12/24 13:46:15;;;;;;;4.23;3.50;;;2.70;99.90;;;;;;5052966;28;20049;-73
2021/12/24 13:48:59;;;;;;;3.80;3.50;;;2.70;99.90;;;;;;5053360;28;20055;-73
2021/12/24 13:56:54;;;;;;;4.83;3.80;;;2.50;99.90;;;;;;5053362;28;20111;-74
2021/12/24 13:59:23;;;;;;;3.63;3.33;;;2.50;99.90;;;;;;5053213;28;20480;-74
2021/12/24 14:01:49;;;;;;;5.10;3.63;;;2.50;99.90;;;;;;5052757;28;20091;-75
2021/12/24 14:04:20;;;;;;;5.30;4.20;;;2.50;99.90;;;;;;5052214;28;20432;-75
2021/12/24 14:06:50;;;;;;;5.30;3.37;;;2.50;99.90;;;;;;5052587;28;20468;-74
2021/12/24 14:09:19;;;;;;;4.03;3.57;;;2.40;99.90;;;;;;5052614;28;20048;-75
2021/12/24 14:11:48;;;;;;;3.30;3.00;;;2.40;99.90;;;;;;5052683;28;20098;-76
2021/12/24 14:14:21;;;;;;;5.77;3.57;;;2.40;99.90;;;;;;5052221;28;20045;-74
2021/12/24 14:17:07;;;;;;;5.60;5.03;;;2.40;99.90;;;;;;5052527;28;20060;-75
2021/12/24 14:19:48;;;;;;;5.17;4.67;;;2.40;99.90;;;;;;5052716;28;20444;-75
2021/12/24 14:22:16;;;;;;;6.00;4.60;;;2.40;99.90;;;;;;5052783;28;20349;-74
2021/12/24 14:24:51;;;;;;;4.30;3.30;;;2.30;99.90;;;;;;5051910;28;20041;-74